Table of current weather in Finland weather stations (FMI)

Data updated at Finland time 20:45   Click the links in "Station" for forecasts

Station
 
Station name
 
 Loc 
 
Observed
 
Temp.
°C
Wind
m/s
Direction
 
Windchill
°C
Gusts
m/s
Humidity
%
Air pressure
hPa
Clouds
 
Conditions
 
Precipitation
mm(1h)
Snow depth
cm
100968 Helsinki-Vantaa Map 13.12.2018 20:30 -2.9 3.3 E -7.3 4.7 86.0 1034.6 overcast (8/8) 0.0
100971 Helsinki/Kaisaniemi Map 13.12.2018 20:30 -1.6 3.3 NE -5.7 6.0 79.0 1034.0 cloudy (7/8) 0.0
874863 Espoo/Tapiola Map 13.12.2018 20:30 -1.8 3.5 NE -6.1 5.8 80.0 1034.1 overcast (8/8) 0.0
852678 Espoo/Nuuksio Map 13.12.2018 20:30 -3.0 2.3 NE -6.4 4.6 86.0 1034.4 overcast (8/8) 0.0
100946 Hanko/Tulliniemi Map 13.12.2018 20:30 -0.8 4.1 NE -5.4 5.4 81.0 1033.3
151029 Mariehamn Map 13.12.2018 20:30 -0.6 2.2 NE -3.4 3.5 84.0 1034.0
100908 Utö Map 13.12.2018 20:30 -0.1 4.9 NE -5 7.8 83.0 1033.4 overcast (8/8)
100949 Turku/Artukainen Map 13.12.2018 20:30 -2.2 1.9 E -4.9 3.9 82.0 1034.6 overcast (8/8) 0.0
101247 Lappeenranta/Lepola Map 13.12.2018 20:30 -5.0 2.1 SE -8.4 3.6 92.0 1035.3 overcast (8/8)
101124 Tampere/Härmälä Map 13.12.2018 20:30 -2.3 88.0 1035.0 overcast (8/8) Snow showers, slight 0.0
101339 Jyväskylä/Airport Map 13.12.2018 20:30 -3.8 1.3 N -5.7 2.2 95.0 1035.6 overcast (8/8) 0.0
101632 Joensuu/Linnunlahti Map 13.12.2018 20:30 -3.9 86.0 1035.9 overcast (8/8) Snow grains 14.0
101586 Kuopio/Savilahti Map 13.12.2018 20:30 -4.0 0.6 S -4 1.6 80.0 1035.2 overcast (8/8) 8.0
101485 Vaasa/Kemettilä Map 13.12.2018 20:30 -2.6 3.3 S -6.9 5.4 92.0 1034.7 overcast (8/8) 0.0
126736 Kajaani/Petäisenniska Map 13.12.2018 20:30 -5.4 1.8 SW -8.5 3.0 100.0 1035.3 overcast (8/8) 12.0
101773 Kuhmo/Kalliojoki Map 13.12.2018 20:30 -6.6 2.0 SW -10.2 4.2 100.0 1035.1 overcast (8/8) 14.0
101799 Oulu/Oulunsalo Map 13.12.2018 20:30 -3.7 3.2 S -8.2 5.4 96.0 1032.8 cloudy (7/8) 15.0
101899 Kuusamo/Kiutaköngäs Map 13.12.2018 20:30 -4.8 6.7 SW -12 10.6 100.0
101920 Rovaniemi/Airport Map 13.12.2018 20:30 -4.0 97.0 Snow showers, slight Snow showers, slight 19.0
101966 Salla/Naruska Map 13.12.2018 20:30 -4.0 2.4 SW -7.7 4.2 93.0 1029.5 13.0
101994 Kittilä/Pokka Map 13.12.2018 20:30 -11.1 3.0 SW -16.9 5.5 93.0 overcast (8/8) 31.0
102019 Enontekiö/Näkkälä Map 13.12.2018 20:30 -13.0 2.5 S -18.4 3.7 91.0 1028.1 clear sky (0/8) 23.0
102052 Ivalo Map 13.12.2018 20:30 -7.6 2.7 SW -12.3 5.8 91.0 1025.2 cloudy (7/8) 17.0
102016 Enontekiö/Kilpisjärvi Map 13.12.2018 20:30 2.7 7.1 NW -2.5 9.5 68.0 1024.0 light clouds (3/8) 15.0
102035 Utsjoki/Kevo Map 13.12.2018 20:30 0.2 3.7 S -3.8 5.0 85.0 1021.8 overcast (8/8) 18.0